Time;durP1;ratioP1;P1;durP2;ratioP2;P2;SDS_P1;SDS_P2;PMS_P1;PMS_P2;Temp;Humidity;BMP_temperature;BMP_pressure;BME280_temperature;BME280_humidity;BME280_pressure;Samples;Min_cycle;Max_cycle;Signal;HPM_P1;HPM_P2
2022/06/13 00:00:00;;;;;;;12.88;6.28;;;;;;;11.30;93.80;101850.41;172661;28;1291;-67
2022/06/13 00:00:19;;;;;;;12.23;6.10;;;;;;;11.28;94.17;101847.00;173356;28;824;-67
2022/06/13 00:00:31;;;;;;;12.68;6.11;;;;;;;11.29;94.04;101850.47;173340;28;1237;-67
2022/06/13 00:00:37;;;;;;;13.10;6.30;;;;;;;11.29;93.98;101853.94;173423;28;1254;-67
2022/06/13 00:00:42;;;;;;;14.32;6.50;;;;;;;11.29;94.28;101851.31;174048;28;911;-67
2022/06/13 00:00:48;;;;;;;13.60;6.47;;;;;;;11.30;94.14;101854.78;173265;28;1440;-68
2022/06/13 00:00:53;;;;;;;13.87;6.57;;;;;;;11.30;93.90;101849.56;173354;28;1072;-67
2022/06/13 00:00:59;;;;;;;13.80;6.57;;;;;;;11.31;93.78;101840.81;173309;28;879;-67
2022/06/13 00:01:10;;;;;;;13.57;6.53;;;;;;;11.30;93.79;101855.63;173328;28;914;-67
2022/06/13 00:01:27;;;;;;;14.00;6.64;;;;;;;11.30;93.85;101847.78;172530;28;1502;-67
2022/06/13 00:01:34;;;;;;;14.10;6.54;;;;;;;11.29;93.84;101853.94;172688;28;1231;-67
2022/06/13 00:01:39;;;;;;;12.76;6.20;;;;;;;11.29;93.80;101853.09;172643;28;979;-67
2022/06/13 00:01:45;;;;;;;12.30;5.97;;;;;;;11.28;93.59;101846.13;172663;28;891;-67
2022/06/13 00:01:51;;;;;;;13.10;6.00;;;;;;;11.27;94.24;101850.53;172619;28;954;-67
2022/06/13 00:01:56;;;;;;;15.27;6.13;;;;;;;11.26;93.90;101853.19;172662;28;867;-67
2022/06/13 00:02:03;;;;;;;15.90;6.23;;;;;;;11.24;93.86;101849.72;172702;28;938;-67
2022/06/13 00:02:09;;;;;;;16.40;6.36;;;;;;;11.20;93.90;101849.81;172684;28;1043;-67
2022/06/13 00:02:14;;;;;;;16.33;6.60;;;;;;;11.17;94.12;101849.06;172682;28;847;-67
2022/06/13 00:02:19;;;;;;;15.35;6.47;;;;;;;11.15;94.98;101848.28;172655;28;1261;-67
2022/06/13 00:02:24;;;;;;;14.80;6.47;;;;;;;11.15;94.73;101850.88;172659;28;963;-67
2022/06/13 00:02:30;;;;;;;14.67;6.60;;;;;;;11.15;94.75;101845.66;172717;28;1022;-67
2022/06/13 00:02:36;;;;;;;14.80;6.60;;;;;;;11.16;94.77;101852.59;172642;28;951;-67
2022/06/13 00:02:41;;;;;;;14.98;6.50;;;;;;;11.17;94.70;101849.06;172663;28;1092;-67
2022/06/13 00:02:47;;;;;;;14.33;6.53;;;;;;;11.17;94.14;101854.28;173043;28;1026;-67
2022/06/13 00:02:53;;;;;;;14.40;6.72;;;;;;;11.18;94.55;101851.63;173329;28;915;-68
2022/06/13 00:03:00;;;;;;;13.07;6.75;;;;;;;11.19;94.45;101852.50;173362;28;883;-67
2022/06/13 00:03:05;;;;;;;12.02;6.74;;;;;;;11.19;94.40;101847.28;173247;28;949;-67
2022/06/13 00:03:11;;;;;;;12.00;6.73;;;;;;;11.21;94.19;101853.28;172560;28;729;-67
2022/06/13 00:03:16;;;;;;;12.38;6.68;;;;;;;11.21;94.68;101855.91;173290;28;836;-67
2022/06/13 00:03:22;;;;;;;13.10;6.63;;;;;;;11.22;94.27;101849.78;173324;28;954;-67
2022/06/13 00:03:27;;;;;;;13.40;6.60;;;;;;;11.22;93.95;101852.38;173342;28;915;-67
2022/06/13 00:03:33;;;;;;;13.53;6.53;;;;;;;11.21;93.63;101850.69;173358;28;1316;-67
2022/06/13 00:03:39;;;;;;;15.60;6.57;;;;;;;11.20;93.71;101847.19;173358;28;931;-67
2022/06/13 00:03:47;;;;;;;15.40;6.47;;;;;;;11.19;94.48;101849.88;173359;28;1127;-67
2022/06/13 00:03:53;;;;;;;15.02;6.43;;;;;;;11.18;93.77;101851.63;173340;28;984;-67
2022/06/13 00:04:01;;;;;;;14.07;6.37;;;;;;;11.17;94.38;101849.94;173399;28;960;-67
2022/06/13 00:04:07;;;;;;;11.47;6.40;;;;;;;11.17;94.04;101854.28;172601;28;1387;-67
2022/06/13 00:04:13;;;;;;;11.35;6.47;;;;;;;11.17;93.91;101847.31;172674;28;978;-67
2022/06/13 00:04:18;;;;;;;11.90;6.60;;;;;;;11.17;94.50;101849.94;172665;28;923;-67
2022/06/13 00:04:24;;;;;;;12.43;6.72;;;;;;;11.19;94.53;101852.50;172648;28;892;-67
2022/06/13 00:04:29;;;;;;;13.83;6.80;;;;;;;11.19;94.66;101849.88;172649;28;856;-66
2022/06/13 00:04:35;;;;;;;14.33;6.80;;;;;;;11.19;94.49;101852.50;172673;28;812;-67
2022/06/13 00:04:41;;;;;;;14.78;6.88;;;;;;;11.19;93.77;101850.72;172498;28;1234;-67
2022/06/13 00:04:46;;;;;;;14.67;7.03;;;;;;;11.20;94.24;101852.44;172665;28;863;-67
2022/06/13 00:04:52;;;;;;;14.53;6.90;;;;;;;11.21;93.64;101850.69;172683;28;915;-67
2022/06/13 00:05:00;;;;;;;14.55;6.82;;;;;;;11.20;94.14;101844.59;172652;28;903;-67
2022/06/13 00:05:08;;;;;;;13.10;6.72;;;;;;;11.21;94.15;101850.69;172655;28;1061;-67
2022/06/13 00:05:16;;;;;;;12.94;6.57;;;;;;;11.22;93.50;101846.31;172644;28;1064;-67
2022/06/13 00:05:21;;;;;;;13.10;6.60;;;;;;;11.22;93.79;101851.56;172644;28;1004;-67
2022/06/13 00:05:27;;;;;;;12.67;6.50;;;;;;;11.21;93.79;101848.06;172693;28;883;-67
2022/06/13 00:05:35;;;;;;;13.30;6.60;;;;;;;11.19;93.77;101848.13;172714;28;1069;-67
2022/06/13 00:05:41;;;;;;;13.96;6.50;;;;;;;11.19;94.27;101848.13;172653;28;1051;-67
2022/06/13 00:05:46;;;;;;;14.03;6.30;;;;;;;11.20;94.06;101846.38;172698;28;875;-67
2022/06/13 00:05:52;;;;;;;14.50;6.30;;;;;;;11.20;94.07;101846.38;172662;28;691;-67
2022/06/13 00:05:57;;;;;;;15.50;6.38;;;;;;;11.20;94.11;101848.97;172659;28;942;-67
2022/06/13 00:06:03;;;;;;;15.90;6.43;;;;;;;11.20;93.86;101848.97;172686;28;820;-68
2022/06/13 00:06:09;;;;;;;15.30;6.55;;;;;;;11.20;93.48;101847.19;173325;28;1073;-68
2022/06/13 00:06:15;;;;;;;14.37;6.60;;;;;;;11.20;93.90;101854.22;173388;28;953;-67
2022/06/13 00:06:21;;;;;;;14.00;6.63;;;;;;;11.20;94.01;101848.97;173312;28;1975;-67
2022/06/13 00:06:27;;;;;;;14.93;6.60;;;;;;;11.20;93.70;101848.97;173480;28;959;-67
2022/06/13 00:06:33;;;;;;;14.83;6.30;;;;;;;11.21;94.18;101850.69;174082;28;959;-67
2022/06/13 00:06:38;;;;;;;14.77;6.17;;;;;;;11.22;94.11;101843.72;173831;28;847;-67
2022/06/13 00:06:44;;;;;;;14.35;6.15;;;;;;;11.21;94.16;101842.84;173420;28;859;-67
2022/06/13 00:06:49;;;;;;;13.90;6.00;;;;;;;11.20;93.92;101839.38;173396;28;1022;-67
2022/06/13 00:06:55;;;;;;;13.27;5.97;;;;;;;11.20;93.85;101843.75;173424;28;895;-67
2022/06/13 00:07:01;;;;;;;13.00;5.93;;;;;;;11.20;93.65;101844.59;173443;28;848;-69
2022/06/13 00:07:06;;;;;;;13.22;6.10;;;;;;;11.19;93.52;101845.50;173399;28;918;-68
2022/06/13 00:07:12;;;;;;;13.63;6.23;;;;;;;11.18;94.05;101846.41;173351;28;1041;-67
2022/06/13 00:07:17;;;;;;;13.13;6.17;;;;;;;11.19;93.80;101844.66;173388;28;1005;-67
2022/06/13 00:07:23;;;;;;;13.63;6.45;;;;;;;11.20;93.83;101846.38;173407;28;1097;-67
2022/06/13 00:07:28;;;;;;;11.97;6.43;;;;;;;11.19;94.10;101844.66;173946;28;1284;-68
2022/06/13 00:07:34;;;;;;;10.60;6.30;;;;;;;11.20;94.44;101841.16;174052;28;985;-68
2022/06/13 00:07:40;;;;;;;10.55;6.22;;;;;;;11.19;94.03;101848.13;174017;28;1083;-67
2022/06/13 00:07:46;;;;;;;10.50;6.13;;;;;;;11.19;93.79;101849.88;174019;28;1104;-67
2022/06/13 00:07:51;;;;;;;11.10;6.13;;;;;;;11.18;94.60;101845.53;174039;28;964;-67
2022/06/13 00:07:56;;;;;;;12.63;6.20;;;;;;;11.18;94.40;101842.94;174022;28;847;-68
2022/06/13 00:08:02;;;;;;;13.20;6.33;;;;;;;11.18;94.32;101850.75;174094;28;903;-69
2022/06/13 00:08:08;;;;;;;13.38;6.35;;;;;;;11.19;94.32;101844.66;174019;28;1029;-69
2022/06/13 00:08:14;;;;;;;13.27;6.30;;;;;;;11.18;94.46;101845.53;174039;28;915;-69
2022/06/13 00:08:19;;;;;;;12.63;6.15;;;;;;;11.18;94.06;101845.53;174024;28;945;-69
2022/06/13 00:08:25;;;;;;;11.70;6.15;;;;;;;11.18;94.54;101848.16;173997;28;864;-69
2022/06/13 00:08:30;;;;;;;12.20;6.10;;;;;;;11.18;94.45;101842.94;174074;28;965;-67
2022/06/13 00:08:37;;;;;;;12.27;6.13;;;;;;;11.18;94.57;101841.19;173994;28;978;-67
2022/06/13 00:08:43;;;;;;;12.60;6.16;;;;;;;11.18;94.39;101842.94;174006;28;878;-67
2022/06/13 00:08:49;;;;;;;12.65;6.32;;;;;;;11.18;94.48;101845.53;173993;28;1085;-67
2022/06/13 00:08:55;;;;;;;13.10;6.33;;;;;;;11.20;94.43;101843.75;174036;28;945;-67
2022/06/13 00:09:01;;;;;;;11.93;6.20;;;;;;;11.18;94.28;101840.31;174033;28;1022;-67
2022/06/13 00:09:07;;;;;;;12.23;6.15;;;;;;;11.19;94.68;101842.06;174034;28;965;-67
2022/06/13 00:09:13;;;;;;;11.85;6.00;;;;;;;11.18;94.16;101842.94;174004;28;975;-67
2022/06/13 00:09:18;;;;;;;12.40;6.10;;;;;;;11.17;94.24;101839.47;173929;28;966;-67
2022/06/13 00:09:23;;;;;;;11.90;6.10;;;;;;;11.19;93.96;101836.81;173993;28;1030;-67
2022/06/13 00:09:29;;;;;;;12.73;6.07;;;;;;;11.18;94.13;101845.53;173463;28;886;-67
2022/06/13 00:09:34;;;;;;;13.75;6.22;;;;;;;11.19;94.69;101844.66;173986;28;863;-67
2022/06/13 00:09:40;;;;;;;14.17;6.40;;;;;;;11.18;94.85;101846.41;174027;28;890;-67
2022/06/13 00:09:45;;;;;;;14.10;6.43;;;;;;;11.19;94.13;101847.28;174059;28;836;-67
2022/06/13 00:09:50;;;;;;;13.40;6.32;;;;;;;11.18;94.64;101846.41;173991;28;1017;-67
2022/06/13 00:09:56;;;;;;;14.20;6.40;;;;;;;11.19;94.21;101847.28;174027;28;1033;-68
2022/06/13 00:10:03;;;;;;;13.20;6.38;;;;;;;11.19;94.58;101847.28;174053;28;937;-67
2022/06/13 00:10:11;;;;;;;12.13;6.27;;;;;;;11.19;94.87;101842.06;174031;28;1148;-66
2022/06/13 00:10:17;;;;;;;11.73;6.10;;;;;;;11.19;94.60;101847.28;173987;28;966;-67
2022/06/13 00:10:23;;;;;;;10.68;5.90;;;;;;;11.19;94.21;101842.06;174007;28;978;-67
2022/06/13 00:10:28;;;;;;;9.17;5.80;;;;;;;11.17;94.66;101849.94;173960;28;1080;-68
2022/06/13 00:10:34;;;;;;;9.43;5.65;;;;;;;11.17;94.30;101843.84;174073;28;990;-69
2022/06/13 00:10:39;;;;;;;9.43;5.73;;;;;;;11.17;94.30;101843.84;174050;28;927;-66
2022/06/13 00:10:44;;;;;;;9.63;5.82;;;;;;;11.17;94.42;101843.84;174012;28;1163;-67
2022/06/13 00:10:50;;;;;;;10.63;5.90;;;;;;;11.19;94.93;101844.66;174013;28;926;-67
2022/06/13 00:10:55;;;;;;;11.65;6.13;;;;;;;11.18;94.91;101842.94;174013;28;914;-67
2022/06/13 00:11:01;;;;;;;12.53;6.20;;;;;;;11.18;94.27;101845.53;174050;28;1037;-67
2022/06/13 00:11:13;;;;;;;13.10;6.28;;;;;;;11.19;94.39;101836.81;173975;28;1040;-67
2022/06/13 00:11:22;;;;;;;14.82;6.49;;;;;;;11.18;94.37;101846.41;174010;28;1249;-67
2022/06/13 00:11:27;;;;;;;14.93;6.60;;;;;;;11.18;94.18;101848.16;173998;28;1315;-67
2022/06/13 00:11:34;;;;;;;15.57;6.63;;;;;;;11.18;94.56;101840.31;174032;28;1037;-67
2022/06/13 00:11:39;;;;;;;15.06;6.50;;;;;;;11.17;94.83;101849.94;173947;28;1168;-67
2022/06/13 00:11:45;;;;;;;14.07;6.40;;;;;;;11.18;94.51;101840.31;174042;28;1004;-67
2022/06/13 00:11:50;;;;;;;14.13;6.40;;;;;;;11.17;94.68;101844.69;173995;28;1032;-67
2022/06/13 00:11:56;;;;;;;14.00;6.40;;;;;;;11.18;95.01;101845.53;174049;28;938;-67
2022/06/13 00:12:01;;;;;;;13.43;6.38;;;;;;;11.17;94.53;101839.47;174059;28;946;-67
2022/06/13 00:12:07;;;;;;;12.27;6.40;;;;;;;11.18;95.07;101843.78;174043;28;1333;-67
2022/06/13 00:12:12;;;;;;;12.50;6.32;;;;;;;11.18;94.61;101845.53;174039;28;946;-67
2022/06/13 00:12:18;;;;;;;11.97;6.30;;;;;;;11.17;94.27;101844.69;174032;28;931;-67
2022/06/13 00:12:24;;;;;;;12.23;6.50;;;;;;;11.16;94.37;101847.34;174042;28;839;-67
2022/06/13 00:12:30;;;;;;;12.43;6.57;;;;;;;11.16;95.05;101849.97;174044;28;883;-67
2022/06/13 00:12:35;;;;;;;13.32;6.68;;;;;;;11.15;94.26;101840.44;174027;28;851;-67
2022/06/13 00:12:43;;;;;;;13.43;6.70;;;;;;;11.15;94.89;101843.88;174065;28;871;-67
2022/06/13 00:12:48;;;;;;;12.93;6.80;;;;;;;11.15;94.86;101840.44;174027;28;982;-67
2022/06/13 00:12:54;;;;;;;12.43;6.70;;;;;;;11.15;94.81;101845.66;174040;28;855;-66
2022/06/13 00:12:59;;;;;;;12.27;6.78;;;;;;;11.15;94.93;101840.44;174038;28;958;-67
2022/06/13 00:13:05;;;;;;;11.63;6.70;;;;;;;11.15;95.09;101843.03;173838;28;919;-68
2022/06/13 00:13:10;;;;;;;12.98;6.70;;;;;;;11.15;95.00;101843.03;173350;28;915;-67
2022/06/13 00:13:16;;;;;;;13.40;6.70;;;;;;;11.14;95.09;101849.13;173321;28;1021;-67
2022/06/13 00:13:21;;;;;;;13.35;6.65;;;;;;;11.15;94.77;101845.66;173328;28;891;-67
2022/06/13 00:13:27;;;;;;;13.60;6.27;;;;;;;11.14;95.11;101843.91;173301;28;903;-67
2022/06/13 00:13:32;;;;;;;14.52;6.20;;;;;;;11.14;94.71;101843.91;173364;28;1100;-67
2022/06/13 00:13:42;;;;;;;13.43;6.10;;;;;;;11.14;94.97;101849.13;173340;28;1394;-67
2022/06/13 00:13:52;;;;;;;13.40;6.19;;;;;;;11.13;95.28;101842.22;173394;28;1073;-67
2022/06/13 00:13:57;;;;;;;12.74;6.22;;;;;;;11.11;95.08;101844.88;173367;28;1151;-67
2022/06/13 00:14:04;;;;;;;12.07;6.30;;;;;;;11.12;95.13;101845.72;173468;28;855;-67
2022/06/13 00:14:09;;;;;;;12.60;6.32;;;;;;;11.12;95.23;101845.72;173395;28;1148;-67
2022/06/13 00:14:14;;;;;;;14.10;6.33;;;;;;;11.12;95.03;101848.34;173389;28;890;-67
2022/06/13 00:14:21;;;;;;;13.98;6.28;;;;;;;11.13;94.75;101847.44;173411;28;1034;-68
2022/06/13 00:14:26;;;;;;;14.02;6.25;;;;;;;11.14;95.05;101849.13;173960;28;1047;-67
2022/06/13 00:14:31;;;;;;;14.60;6.20;;;;;;;11.14;95.21;101843.91;174090;28;899;-68
2022/06/13 00:14:37;;;;;;;15.13;6.20;;;;;;;11.14;95.67;101838.69;174037;28;1093;-67
2022/06/13 00:14:42;;;;;;;13.57;5.97;;;;;;;11.13;95.44;101837.00;174051;28;926;-68
2022/06/13 00:14:48;;;;;;;13.40;5.93;;;;;;;11.12;95.04;101840.50;174039;28;1226;-68
2022/06/13 00:14:53;;;;;;;14.68;6.10;;;;;;;11.12;95.31;101846.56;174048;28;1045;-68
2022/06/13 00:14:58;;;;;;;14.43;6.27;;;;;;;11.12;94.78;101840.50;174012;28;1072;-68
2022/06/13 00:15:05;;;;;;;12.85;6.18;;;;;;;11.12;95.33;101843.13;174063;28;1053;-68
2022/06/13 00:15:14;;;;;;;12.25;6.28;;;;;;;11.12;94.84;101843.13;174022;28;977;-67
2022/06/13 00:15:19;;;;;;;12.17;6.30;;;;;;;11.12;95.43;101838.72;174030;28;970;-68
2022/06/13 00:15:25;;;;;;;12.55;6.20;;;;;;;11.13;95.26;101839.59;174018;28;1014;-68
2022/06/13 00:15:30;;;;;;;13.23;6.37;;;;;;;11.12;95.33;101840.50;174041;28;843;-68
2022/06/13 00:15:36;;;;;;;12.90;6.40;;;;;;;11.12;95.38;101840.50;174009;28;1049;-68
2022/06/13 00:15:41;;;;;;;13.97;6.57;;;;;;;11.12;94.77;101837.91;174047;28;953;-67
2022/06/13 00:15:47;;;;;;;13.85;6.53;;;;;;;11.13;95.41;101844.81;174024;28;895;-68
2022/06/13 00:15:52;;;;;;;12.80;6.50;;;;;;;11.12;94.86;101835.28;174019;28;1085;-68
2022/06/13 00:15:58;;;;;;;12.43;6.53;;;;;;;11.11;95.30;101837.03;173924;28;781;-67
2022/06/13 00:16:04;;;;;;;12.47;6.47;;;;;;;11.13;95.49;101837.00;174080;28;811;-67
2022/06/13 00:16:14;;;;;;;13.50;6.57;;;;;;;11.12;95.11;101838.72;174062;28;877;-68
2022/06/13 00:16:20;;;;;;;13.14;6.44;;;;;;;11.12;95.21;101836.13;173995;28;1239;-67
2022/06/13 00:16:26;;;;;;;13.95;6.38;;;;;;;11.11;95.39;101837.03;173524;28;923;-68
2022/06/13 00:16:31;;;;;;;13.90;6.37;;;;;;;11.11;95.11;101838.78;173397;28;859;-67
2022/06/13 00:16:37;;;;;;;13.40;6.28;;;;;;;11.12;94.95;101835.28;173348;28;943;-68
2022/06/13 00:16:42;;;;;;;14.33;6.33;;;;;;;11.11;95.57;101838.78;173351;28;899;-68
2022/06/13 00:16:47;;;;;;;14.45;6.40;;;;;;;11.11;95.63;101844.00;173335;28;1104;-67
2022/06/13 00:16:53;;;;;;;13.97;6.50;;;;;;;11.11;95.64;101833.56;173317;28;1029;-68
2022/06/13 00:16:58;;;;;;;13.90;6.50;;;;;;;11.12;95.39;101843.13;173302;28;927;-68
2022/06/13 00:17:04;;;;;;;14.07;6.40;;;;;;;11.10;95.23;101837.94;173360;28;879;-67
2022/06/13 00:17:10;;;;;;;14.10;6.50;;;;;;;11.08;95.44;101835.38;173351;28;899;-68
2022/06/13 00:17:16;;;;;;;12.62;6.44;;;;;;;11.09;95.12;101841.47;173331;28;914;-67
2022/06/13 00:17:21;;;;;;;12.37;6.50;;;;;;;11.08;95.13;101835.38;173345;28;1076;-67
2022/06/13 00:17:27;;;;;;;13.05;6.40;;;;;;;11.09;95.61;101838.84;173341;28;1037;-68
2022/06/13 00:17:32;;;;;;;13.63;6.47;;;;;;;11.10;95.43;101840.56;173367;28;775;-67
2022/06/13 00:17:37;;;;;;;13.38;6.35;;;;;;;11.08;95.42;101834.50;173272;28;1050;-68
2022/06/13 00:17:43;;;;;;;13.30;6.30;;;;;;;11.07;95.40;101836.28;173317;28;1269;-68
2022/06/13 00:17:48;;;;;;;14.15;6.35;;;;;;;11.08;95.25;101837.13;173347;28;1085;-67
2022/06/13 00:17:54;;;;;;;13.77;6.27;;;;;;;11.07;95.53;101833.66;173323;28;914;-68
2022/06/13 00:17:59;;;;;;;13.73;6.20;;;;;;;11.08;95.94;101832.75;173936;28;998;-67
2022/06/13 00:18:05;;;;;;;13.55;6.20;;;;;;;11.09;95.34;101838.84;174041;28;1042;-68
2022/06/13 00:18:11;;;;;;;13.50;6.15;;;;;;;11.08;95.96;101835.38;173992;28;1029;-68
2022/06/13 00:18:16;;;;;;;14.13;6.00;;;;;;;11.07;95.88;101838.88;174064;28;934;-68
2022/06/13 00:18:21;;;;;;;13.95;6.15;;;;;;;11.08;95.63;101837.97;174006;28;991;-67
2022/06/13 00:18:27;;;;;;;13.57;6.10;;;;;;;11.08;95.92;101837.97;173959;28;851;-67
2022/06/13 00:18:32;;;;;;;13.15;6.15;;;;;;;11.08;95.79;101840.59;174050;28;942;-68
2022/06/13 00:18:38;;;;;;;13.07;6.27;;;;;;;11.08;95.65;101837.13;174016;28;927;-69
2022/06/13 00:18:47;;;;;;;12.65;6.30;;;;;;;11.07;95.52;101838.88;174023;28;914;-68
2022/06/13 00:18:53;;;;;;;11.30;6.10;;;;;;;11.08;95.87;101840.59;174055;28;918;-67
2022/06/13 00:18:59;;;;;;;11.77;6.22;;;;;;;11.07;95.39;101836.28;174053;28;839;-67
2022/06/13 00:19:04;;;;;;;12.90;6.27;;;;;;;11.07;95.90;101838.03;173973;28;1448;-68
2022/06/13 00:19:10;;;;;;;13.27;6.20;;;;;;;11.06;95.31;101831.94;174031;28;935;-67
2022/06/13 00:19:16;;;;;;;14.38;6.30;;;;;;;11.07;95.95;101838.88;174033;28;1486;-67
2022/06/13 00:19:21;;;;;;;14.87;6.30;;;;;;;11.06;95.66;101837.16;173934;28;1406;-67
2022/06/13 00:19:26;;;;;;;14.45;6.35;;;;;;;11.06;95.71;101839.75;174016;28;946;-67
2022/06/13 00:19:32;;;;;;;13.93;6.30;;;;;;;11.06;95.85;101838.94;174093;28;966;-67
2022/06/13 00:19:37;;;;;;;13.57;6.30;;;;;;;11.06;96.00;101842.38;174001;28;943;-67
2022/06/13 00:19:43;;;;;;;13.55;6.30;;;;;;;11.06;95.60;101839.75;173942;28;945;-67
2022/06/13 00:19:48;;;;;;;14.23;6.32;;;;;;;11.08;95.95;101832.75;173953;28;1077;-67
2022/06/13 00:19:54;;;;;;;14.93;6.37;;;;;;;11.08;95.60;101829.28;174001;28;1029;-67
2022/06/13 00:19:59;;;;;;;14.63;6.30;;;;;;;11.08;95.84;101834.50;173507;28;914;-68
2022/06/13 00:20:06;;;;;;;13.17;6.13;;;;;;;11.11;95.76;101833.56;173394;28;1006;-67
2022/06/13 00:20:13;;;;;;;12.44;6.04;;;;;;;11.09;95.51;101838.84;173319;28;1077;-67
2022/06/13 00:20:19;;;;;;;10.93;5.93;;;;;;;11.10;95.52;101830.09;173323;28;1045;-67
2022/06/13 00:20:24;;;;;;;10.20;5.90;;;;;;;11.10;95.95;101837.94;173350;28;887;-67
2022/06/13 00:20:29;;;;;;;10.65;5.93;;;;;;;11.10;95.58;101837.94;172549;28;860;-67
2022/06/13 00:20:35;;;;;;;12.13;6.00;;;;;;;11.12;95.42;101843.13;172693;28;887;-67
2022/06/13 00:20:40;;;;;;;12.18;6.07;;;;;;;11.12;95.31;101835.28;172658;28;1088;-67
2022/06/13 00:20:46;;;;;;;12.33;6.10;;;;;;;11.11;95.42;101838.78;172663;28;832;-67
2022/06/13 00:20:54;;;;;;;12.40;6.10;;;;;;;11.12;95.25;101836.13;172661;28;914;-67
2022/06/13 00:20:59;;;;;;;12.35;5.98;;;;;;;11.11;95.14;101836.16;172646;28;975;-67
2022/06/13 00:21:05;;;;;;;11.15;5.90;;;;;;;11.12;95.84;101835.28;172662;28;1196;-67
2022/06/13 00:21:10;;;;;;;11.10;5.83;;;;;;;11.12;95.83;101837.91;172676;28;1082;-67
2022/06/13 00:21:31;;;;;;;11.20;5.83;;;;;;;11.13;95.22;101831.75;172650;28;1085;-67
2022/06/13 00:21:38;;;;;;;11.40;6.06;;;;;;;11.14;95.92;101833.47;173309;28;1264;-66
2022/06/13 00:21:43;;;;;;;11.18;6.10;;;;;;;11.13;95.26;101837.00;173328;28;998;-69
2022/06/13 00:21:49;;;;;;;10.90;6.00;;;;;;;11.13;95.52;101840.47;173267;28;903;-67
2022/06/13 00:21:54;;;;;;;11.13;5.97;;;;;;;11.14;95.85;101838.69;173305;28;1088;-69
2022/06/13 00:21:59;;;;;;;11.33;6.13;;;;;;;11.15;95.99;101840.44;173321;28;844;-69
2022/06/13 00:22:05;;;;;;;10.80;6.20;;;;;;;11.13;95.86;101831.75;173387;28;1293;-69
2022/06/13 00:22:11;;;;;;;12.15;6.25;;;;;;;11.13;95.17;101831.75;173345;28;1176;-69
2022/06/13 00:22:16;;;;;;;13.10;6.47;;;;;;;11.13;95.65;101837.00;173325;28;1085;-69
2022/06/13 00:22:22;;;;;;;13.10;6.50;;;;;;;11.12;95.48;101830.91;173338;28;982;-67
2022/06/13 00:22:28;;;;;;;12.77;6.57;;;;;;;11.12;96.04;101838.72;173357;28;856;-68
2022/06/13 00:22:33;;;;;;;13.15;6.53;;;;;;;11.12;95.68;101837.91;173486;28;971;-67
2022/06/13 00:22:39;;;;;;;13.40;6.50;;;;;;;11.12;95.72;101835.28;173396;28;911;-67
2022/06/13 00:22:45;;;;;;;12.30;6.32;;;;;;;11.12;95.85;101837.91;173288;28;851;-67
2022/06/13 00:22:50;;;;;;;12.50;6.30;;;;;;;11.12;95.39;101833.50;173329;28;860;-67
2022/06/13 00:22:55;;;;;;;11.83;6.23;;;;;;;11.12;96.14;101836.13;173332;28;828;-67
2022/06/13 00:23:01;;;;;;;11.50;6.10;;;;;;;11.13;95.87;101829.16;173308;28;995;-67
2022/06/13 00:23:06;;;;;;;11.30;6.10;;;;;;;11.14;96.01;101834.34;173382;28;840;-67
2022/06/13 00:23:12;;;;;;;10.53;6.10;;;;;;;11.14;95.92;101830.84;173345;28;927;-67
2022/06/13 00:23:17;;;;;;;11.30;6.03;;;;;;;11.14;95.78;101828.25;173321;28;1089;-67
2022/06/13 00:23:22;;;;;;;11.57;6.03;;;;;;;11.14;95.73;101828.25;173261;28;994;-67
2022/06/13 00:23:28;;;;;;;12.20;6.10;;;;;;;11.14;95.55;101833.47;173315;28;986;-67
2022/06/13 00:23:37;;;;;;;13.32;6.13;;;;;;;11.14;96.02;101833.47;172641;28;1006;-67
2022/06/13 00:23:42;;;;;;;13.17;6.17;;;;;;;11.14;95.59;101830.84;172651;28;1075;-67
2022/06/13 00:23:49;;;;;;;12.63;6.20;;;;;;;11.14;96.00;101838.69;172685;28;1140;-66
2022/06/13 00:23:55;;;;;;;12.42;6.16;;;;;;;11.15;95.95;101829.97;172509;28;1126;-67
2022/06/13 00:24:03;;;;;;;12.35;6.15;;;;;;;11.14;95.98;101834.34;172656;28;1082;-67
2022/06/13 00:24:09;;;;;;;13.02;6.22;;;;;;;11.15;95.86;101829.97;172636;28;1026;-67
2022/06/13 00:24:14;;;;;;;12.88;6.15;;;;;;;11.14;96.24;101829.13;172661;28;1081;-67
2022/06/13 00:24:19;;;;;;;12.60;6.20;;;;;;;11.16;95.60;101832.53;172638;28;1073;-67
2022/06/13 00:24:25;;;;;;;12.30;6.15;;;;;;;11.14;95.64;101823.88;172561;28;1045;-67
2022/06/13 00:24:30;;;;;;;11.57;6.10;;;;;;;11.16;95.86;101831.69;172686;28;895;-67
2022/06/13 00:24:36;;;;;;;10.30;6.03;;;;;;;11.15;95.62;101830.81;172681;28;1050;-67
2022/06/13 00:24:42;;;;;;;11.13;6.13;;;;;;;11.15;95.63;101829.97;172869;28;895;-67
2022/06/13 00:24:47;;;;;;;11.07;6.03;;;;;;;11.15;96.03;101829.97;173348;28;970;-66
2022/06/13 00:24:53;;;;;;;10.90;6.03;;;;;;;11.15;95.72;101829.97;173343;28;1280;-67
2022/06/13 00:24:58;;;;;;;11.13;6.10;;;;;;;11.14;95.73;101829.13;173361;28;863;-68
2022/06/13 00:25:04;;;;;;;11.50;6.10;;;;;;;11.15;96.22;101832.59;173392;28;1006;-67
2022/06/13 00:25:10;;;;;;;12.22;6.10;;;;;;;11.14;95.73;101833.47;172557;28;1145;-68
2022/06/13 00:25:16;;;;;;;12.80;6.10;;;;;;;11.14;96.31;101829.13;172646;28;906;-67
2022/06/13 00:25:22;;;;;;;13.35;6.22;;;;;;;11.13;95.71;101830.03;172658;28;1299;-67
2022/06/13 00:25:27;;;;;;;13.40;6.20;;;;;;;11.14;95.88;101828.25;172540;28;1225;-67
2022/06/13 00:25:32;;;;;;;13.53;6.20;;;;;;;11.14;96.05;101830.84;172530;28;1414;-67
2022/06/13 00:25:38;;;;;;;13.02;6.30;;;;;;;11.13;95.38;101832.63;172660;28;1045;-67
2022/06/13 00:25:43;;;;;;;13.10;6.27;;;;;;;11.13;96.09;101829.16;172634;28;1210;-67
2022/06/13 00:25:48;;;;;;;13.67;6.20;;;;;;;11.14;96.00;101830.84;172673;28;1556;-67
2022/06/13 00:25:54;;;;;;;13.65;6.22;;;;;;;11.14;95.75;101830.84;172640;28;1030;-68
2022/06/13 00:26:00;;;;;;;14.40;6.20;;;;;;;11.13;96.07;101829.16;172611;28;1108;-67
2022/06/13 00:26:05;;;;;;;15.60;6.27;;;;;;;11.14;95.90;101833.47;171885;28;1736;-67
2022/06/13 00:26:11;;;;;;;15.10;6.15;;;;;;;11.12;95.95;101828.28;171971;28;1171;-67
2022/06/13 00:26:18;;;;;;;14.67;6.20;;;;;;;11.13;95.78;101834.38;172022;28;950;-67
2022/06/13 00:26:26;;;;;;;13.73;6.03;;;;;;;11.14;95.66;101833.47;172282;28;1922;-67
2022/06/13 00:26:35;;;;;;;12.65;5.87;;;;;;;11.13;96.02;101827.41;171872;28;2766;-67
2022/06/13 00:26:40;;;;;;;11.73;5.92;;;;;;;11.14;96.29;101833.47;171834;28;1748;-67
2022/06/13 00:26:45;;;;;;;11.33;6.00;;;;;;;11.14;96.15;101828.25;171987;28;903;-67
2022/06/13 00:26:51;;;;;;;10.73;6.00;;;;;;;11.15;96.18;101829.97;171959;28;912;-67
2022/06/13 00:26:56;;;;;;;11.37;6.10;;;;;;;11.14;96.25;101823.88;171988;28;1034;-67
2022/06/13 00:27:02;;;;;;;11.07;6.22;;;;;;;11.15;95.68;101830.81;171971;28;1034;-67
2022/06/13 00:27:09;;;;;;;10.87;6.10;;;;;;;11.15;95.91;101829.97;172239;28;1074;-67
2022/06/13 00:27:15;;;;;;;10.57;5.82;;;;;;;11.14;95.92;101831.72;172627;28;1033;-68
2022/06/13 00:27:20;;;;;;;11.43;5.90;;;;;;;11.13;95.57;101834.38;172660;28;1025;-67
2022/06/13 00:27:26;;;;;;;11.20;6.00;;;;;;;11.13;95.79;101829.16;172663;28;836;-67
2022/06/13 00:27:31;;;;;;;11.53;6.07;;;;;;;11.13;96.23;101826.53;172643;28;1034;-67
2022/06/13 00:27:37;;;;;;;12.43;6.00;;;;;;;11.13;96.10;101831.75;172680;28;1060;-69
2022/06/13 00:27:43;;;;;;;12.23;6.15;;;;;;;11.12;95.40;101825.66;172632;28;959;-69
2022/06/13 00:27:48;;;;;;;11.95;6.10;;;;;;;11.12;95.82;101827.44;172687;28;1101;-67
2022/06/13 00:27:54;;;;;;;12.87;6.00;;;;;;;11.13;96.18;101832.63;172673;28;899;-67
2022/06/13 00:27:59;;;;;;;12.95;5.93;;;;;;;11.13;95.93;101831.75;172666;28;1142;-67
2022/06/13 00:28:05;;;;;;;13.87;6.20;;;;;;;11.14;95.66;101833.47;173070;28;899;-67
2022/06/13 00:28:10;;;;;;;14.43;6.30;;;;;;;11.13;96.09;101837.00;173330;28;946;-67
2022/06/13 00:28:16;;;;;;;14.15;6.20;;;;;;;11.13;96.38;101831.75;173339;28;918;-67
2022/06/13 00:28:21;;;;;;;14.33;6.20;;;;;;;11.13;96.09;101827.41;173339;28;850;-66
2022/06/13 00:28:26;;;;;;;14.13;6.35;;;;;;;11.13;95.65;101826.53;173347;28;852;-67
2022/06/13 00:28:32;;;;;;;13.70;6.33;;;;;;;11.12;95.95;101824.84;173138;28;1096;-67